createdAt,value
2023-01-11T00:01:01.568Z,-0.52
2023-01-11T00:06:02.735Z,-1.25
2023-01-11T00:11:03.853Z,-1.25
2023-01-11T00:16:05.098Z,-1.25
2023-01-11T00:21:06.719Z,-1.47
2023-01-11T00:26:05.895Z,-1.47
2023-01-11T00:31:07.072Z,-1.47
2023-01-11T00:36:08.219Z,-1.25
2023-01-11T00:41:09.382Z,-0.09
2023-01-11T00:46:10.592Z,-0.30
2023-01-11T00:51:11.681Z,-0.09
2023-01-11T00:56:12.863Z,-0.52
2023-01-11T01:01:14.056Z,-0.52
2023-01-11T01:06:15.288Z,-0.52
2023-01-11T01:11:16.465Z,-0.30
2023-01-11T01:16:21.487Z,-0.52
2023-01-11T01:21:18.599Z,-0.52
2023-01-11T01:26:20.750Z,-0.52
2023-01-11T01:31:20.301Z,-0.52
2023-01-11T01:36:19.520Z,-0.52
2023-01-11T01:41:21.162Z,-0.52
2023-01-11T01:46:20.355Z,-0.74
2023-01-11T01:51:21.531Z,-0.30
2023-01-11T01:56:22.683Z,-0.09
2023-01-11T02:01:23.919Z,-0.30
2023-01-11T02:06:25.068Z,-0.52
2023-01-11T02:11:26.285Z,-0.52
2023-01-11T02:16:27.432Z,-0.52
2023-01-11T02:21:28.619Z,-0.30
2023-01-11T02:26:29.797Z,-0.74
2023-01-11T02:31:30.972Z,-0.74
2023-01-11T02:36:32.115Z,-0.74
2023-01-11T02:41:33.198Z,-0.96
2023-01-11T02:46:34.462Z,-0.96
2023-01-11T02:51:35.564Z,-0.74
2023-01-11T02:56:36.679Z,-0.74
2023-01-11T03:01:37.845Z,-0.52
2023-01-11T03:06:39.056Z,-0.52
2023-01-11T03:11:40.264Z,-0.30
2023-01-11T03:16:41.531Z,-0.52
2023-01-11T03:21:42.694Z,-0.74
2023-01-11T03:26:43.856Z,-0.52
2023-01-11T03:31:45.056Z,-0.52
2023-01-11T03:36:46.157Z,-0.96
2023-01-11T03:41:47.285Z,-0.74
2023-01-11T03:46:48.563Z,-0.74
2023-01-11T03:51:49.753Z,-0.96
2023-01-11T03:56:50.982Z,-0.52
2023-01-11T04:01:52.094Z,-0.52
2023-01-11T04:06:53.249Z,-0.74
2023-01-11T04:11:54.339Z,-1.47
2023-01-11T04:16:55.607Z,-1.47
2023-01-11T04:21:56.744Z,-1.47
2023-01-11T04:26:57.891Z,-1.47
2023-01-11T04:31:58.994Z,-1.47
2023-01-11T04:37:00.130Z,-1.68
2023-01-11T04:42:01.253Z,-1.47
2023-01-11T04:47:02.424Z,-1.47
2023-01-11T04:52:03.527Z,-1.68
2023-01-11T04:57:04.838Z,-1.47
2023-01-11T05:02:06.006Z,-1.47
2023-01-11T05:07:07.174Z,-1.47
2023-01-11T05:12:08.327Z,-1.68
2023-01-11T05:17:09.583Z,-1.68
2023-01-11T05:22:10.741Z,-1.47
2023-01-11T05:27:10.908Z,-1.47
2023-01-11T05:32:12.077Z,-1.25
2023-01-11T05:37:12.277Z,-0.83
2023-01-11T05:42:14.528Z,-0.83
2023-01-11T05:47:13.672Z,-1.04
2023-01-11T05:52:14.846Z,-1.47
2023-01-11T05:57:16.033Z,-1.47
2023-01-11T06:02:17.373Z,-1.47
2023-01-11T06:07:18.673Z,-1.47
2023-01-11T06:12:19.895Z,-1.47
2023-01-11T06:17:21.073Z,-1.25
2023-01-11T06:22:22.316Z,-1.04
2023-01-11T06:27:23.538Z,-0.30
2023-01-11T06:32:24.717Z,-0.52
2023-01-11T06:37:25.977Z,-0.52
2023-01-11T06:42:27.133Z,-0.74
2023-01-11T06:47:28.292Z,-0.52
2023-01-11T06:52:29.481Z,-0.74
2023-01-11T06:57:30.663Z,-0.09
2023-01-11T07:02:31.945Z,0.54
2023-01-11T07:07:33.180Z,-0.30
2023-01-11T07:12:34.419Z,-0.52
2023-01-11T07:17:35.663Z,-0.96
2023-01-11T07:22:37.267Z,-0.52
2023-01-11T07:27:36.521Z,-0.74
2023-01-11T07:32:37.782Z,-0.52
2023-01-11T07:37:38.979Z,-0.52
2023-01-11T07:42:40.188Z,-0.30
2023-01-11T07:47:41.403Z,-0.52
2023-01-11T07:52:42.575Z,-0.30
2023-01-11T07:57:43.732Z,-0.52
2023-01-11T08:02:44.989Z,0.43
2023-01-11T08:07:46.156Z,0.43
2023-01-11T08:12:48.231Z,0.12
2023-01-11T08:17:48.622Z,-0.09
2023-01-11T08:22:49.907Z,-0.09
2023-01-11T08:27:51.138Z,0.12
2023-01-11T08:32:52.339Z,0.65
2023-01-11T08:37:53.478Z,0.65
2023-01-11T08:42:55.613Z,0.43
2023-01-11T08:47:54.723Z,0.43
2023-01-11T08:52:55.852Z,0.43
2023-01-11T08:57:56.994Z,0.43
2023-01-11T09:02:58.182Z,0.65
2023-01-11T09:07:59.310Z,1.60
2023-01-11T09:13:00.416Z,1.41
2023-01-11T09:18:01.540Z,1.15
2023-01-11T09:23:03.733Z,1.15
2023-01-11T09:28:21.886Z,1.15
2023-01-11T09:33:04.025Z,0.93
2023-01-11T09:38:03.128Z,1.15
2023-01-11T09:43:04.265Z,1.15
2023-01-11T09:48:06.414Z,0.93
2023-01-11T09:53:05.576Z,0.93
2023-01-11T09:58:06.908Z,0.93
2023-01-11T10:03:08.119Z,0.93
2023-01-11T10:18:39.530Z,0.93
2023-01-11T10:23:10.244Z,1.15
2023-01-11T10:28:09.390Z,1.15
2023-01-11T10:33:10.531Z,2.10
2023-01-11T10:38:11.610Z,1.38
2023-01-11T10:43:13.791Z,2.10
2023-01-11T10:48:12.943Z,2.10
2023-01-11T10:53:15.105Z,1.87
2023-01-11T10:58:14.261Z,1.41
2023-01-11T11:03:14.063Z,1.41
2023-01-11T11:08:15.206Z,1.41
2023-01-11T11:13:17.350Z,1.64
2023-01-11T11:18:17.465Z,1.87
2023-01-11T11:23:16.620Z,2.10
2023-01-11T11:28:17.745Z,1.87
2023-01-11T11:33:18.877Z,1.87
2023-01-11T11:38:23.029Z,1.87
2023-01-11T11:43:21.492Z,1.87
2023-01-11T11:48:21.770Z,1.87
2023-01-11T11:53:21.920Z,1.87
2023-01-11T11:58:21.054Z,1.87
2023-01-11T12:03:22.223Z,1.87
2023-01-11T12:08:24.352Z,1.87
2023-01-11T12:13:24.600Z,1.87
2023-01-11T12:18:23.762Z,2.10
2023-01-11T12:23:24.876Z,1.87
2023-01-11T12:28:26.042Z,1.87
2023-01-11T12:33:27.179Z,1.87
2023-01-11T12:38:28.322Z,1.87
2023-01-11T12:43:29.468Z,1.87
2023-01-11T12:48:31.603Z,2.10
2023-01-11T12:53:30.707Z,2.10
2023-01-11T12:58:31.866Z,2.33
2023-01-11T13:03:33.036Z,2.33
2023-01-11T13:08:34.205Z,2.10
2023-01-11T13:13:35.384Z,2.55
2023-01-11T13:18:36.548Z,1.81
2023-01-11T13:23:37.700Z,2.24
2023-01-11T13:28:38.893Z,2.86
2023-01-11T13:33:40.072Z,3.06
2023-01-11T13:38:42.377Z,3.45
2023-01-11T13:43:41.501Z,3.45
2023-01-11T13:48:42.649Z,3.64
2023-01-11T13:53:43.804Z,4.21
2023-01-11T13:58:44.928Z,4.76
2023-01-11T14:03:46.168Z,4.76
2023-01-11T14:08:47.516Z,5.11
2023-01-11T14:13:48.649Z,3.06
2023-01-11T14:18:49.798Z,3.96
2023-01-11T14:23:52.251Z,4.31
2023-01-11T14:28:51.415Z,4.65
2023-01-11T14:33:52.544Z,4.31
2023-01-11T14:38:53.697Z,4.48
2023-01-11T14:43:54.831Z,4.82
2023-01-11T14:48:55.963Z,5.47
2023-01-11T14:53:57.131Z,4.48
2023-01-11T14:58:58.253Z,4.64
2023-01-11T15:04:00.425Z,5.63
2023-01-11T15:09:00.549Z,3.83
2023-01-11T15:13:59.730Z,4.14
2023-01-11T15:19:00.846Z,4.65
2023-01-11T15:24:02.010Z,4.31
2023-01-11T15:29:03.138Z,3.24
2023-01-11T15:34:04.333Z,3.06
2023-01-11T15:39:06.498Z,4.02
2023-01-11T15:44:05.630Z,3.60
2023-01-11T15:49:06.814Z,3.60
2023-01-11T15:54:07.962Z,3.78
2023-01-11T15:59:09.082Z,3.78
2023-01-11T16:04:11.005Z,3.96
2023-01-11T16:09:10.148Z,3.96
2023-01-11T16:14:11.398Z,4.14
2023-01-11T16:19:12.547Z,4.48
2023-01-11T16:24:14.741Z,4.48
2023-01-11T16:29:13.855Z,4.14
2023-01-11T16:34:15.978Z,3.78
2023-01-11T16:39:15.094Z,3.96
2023-01-11T16:44:16.207Z,3.78
2023-01-11T16:49:17.345Z,3.96
2023-01-11T16:54:18.521Z,3.96
2023-01-11T16:59:19.702Z,3.60
2023-01-11T17:04:20.847Z,3.78
2023-01-11T17:09:21.983Z,3.78
2023-01-11T17:14:23.179Z,4.94
2023-01-11T17:19:24.383Z,4.94
2023-01-11T17:24:25.584Z,4.31
2023-01-11T17:29:26.741Z,4.48
2023-01-11T17:34:28.865Z,4.48
2023-01-11T17:39:29.022Z,4.65
2023-01-11T17:44:29.158Z,4.48
2023-01-11T17:49:29.293Z,4.65
2023-01-11T17:54:29.465Z,4.65
2023-01-11T17:59:29.606Z,4.82
2023-01-11T18:04:28.747Z,4.82
2023-01-11T18:09:29.892Z,4.98
2023-01-11T18:14:32.077Z,4.82
2023-01-11T18:19:34.251Z,5.15
2023-01-11T18:24:31.464Z,5.63
2023-01-11T18:29:32.749Z,5.63
2023-01-11T18:34:36.149Z,5.94
2023-01-11T18:39:35.485Z,5.94
2023-01-11T18:44:37.840Z,6.10
2023-01-11T18:49:36.999Z,6.10
2023-01-11T18:54:39.331Z,6.41
2023-01-11T18:59:38.511Z,6.41
2023-01-11T19:04:40.977Z,6.56
2023-01-11T19:09:41.183Z,6.56
2023-01-11T19:14:40.361Z,6.56
2023-01-11T19:19:41.538Z,6.56
2023-01-11T19:24:42.735Z,6.56
2023-01-11T19:29:44.118Z,6.46
2023-01-11T19:34:43.568Z,6.78
2023-01-11T19:39:44.802Z,7.09
2023-01-11T19:44:46.711Z,6.10
2023-01-11T19:49:45.984Z,6.25
2023-01-11T19:54:47.343Z,6.56
2023-01-11T19:59:48.615Z,6.56
2023-01-11T20:04:49.780Z,6.56
2023-01-11T20:09:51.118Z,6.10
2023-01-11T20:14:52.580Z,6.25
2023-01-11T20:19:54.904Z,6.10
2023-01-11T20:24:54.031Z,6.41
2023-01-11T20:29:55.211Z,6.56
2023-01-11T20:34:56.366Z,6.71
2023-01-11T20:39:57.746Z,6.71
2023-01-11T20:44:59.150Z,6.56
2023-01-11T20:49:59.349Z,6.41
2023-01-11T20:55:00.611Z,6.41
2023-01-11T21:00:01.799Z,6.56
2023-01-11T21:05:03.057Z,6.71
2023-01-11T21:10:04.299Z,6.71
2023-01-11T21:15:05.462Z,6.71
2023-01-11T21:20:06.658Z,5.71
2023-01-11T21:25:07.833Z,5.71
2023-01-11T21:30:09.024Z,5.85
2023-01-11T21:35:10.259Z,5.71
2023-01-11T21:40:11.519Z,5.71
2023-01-11T21:45:12.766Z,5.85
2023-01-11T21:50:14.023Z,5.85
2023-01-11T21:55:15.258Z,6.25
2023-01-11T22:00:16.506Z,5.15
2023-01-11T22:05:17.727Z,5.80
2023-01-11T22:10:18.884Z,5.80
2023-01-11T22:15:20.071Z,5.63
2023-01-11T22:20:21.205Z,4.82
2023-01-11T22:25:22.354Z,5.15
2023-01-11T22:30:24.499Z,5.31
2023-01-11T22:35:23.613Z,5.47
2023-01-11T22:40:24.783Z,5.63
2023-01-11T22:45:26.036Z,5.79
2023-01-11T22:50:27.175Z,4.80
2023-01-11T22:55:28.312Z,5.11
2023-01-11T23:00:30.463Z,5.11
2023-01-11T23:05:30.575Z,5.26
2023-01-11T23:10:30.720Z,5.26
2023-01-11T23:15:29.870Z,5.26
2023-01-11T23:20:31.019Z,5.26
2023-01-11T23:25:32.473Z,5.26
2023-01-11T23:30:34.648Z,5.11
2023-01-11T23:35:34.840Z,4.95
2023-01-11T23:40:33.940Z,4.48
2023-01-11T23:45:35.103Z,4.48
2023-01-11T23:50:35.267Z,4.14
2023-01-11T23:55:38.426Z,3.96
